createdAt,value
2019-03-21T00:01:30.719Z,14.44
2019-03-21T00:03:58.485Z,14.35
2019-03-21T00:06:26.229Z,14.27
2019-03-21T00:08:54.302Z,14.34
2019-03-21T00:11:22.147Z,14.21
2019-03-21T00:13:49.993Z,14.34
2019-03-21T00:16:17.737Z,14.30
2019-03-21T00:18:45.478Z,14.27
2019-03-21T00:21:13.228Z,14.27
2019-03-21T00:34:59.270Z,13.03
2019-03-21T00:37:29.020Z,14.02
2019-03-21T00:39:56.884Z,14.19
2019-03-21T00:42:24.761Z,14.13
2019-03-21T00:44:52.515Z,14.24
2019-03-21T00:47:20.359Z,14.23
2019-03-21T00:49:48.117Z,14.54
2019-03-21T00:52:15.860Z,14.02
2019-03-21T00:54:43.657Z,14.09
2019-03-21T00:57:11.390Z,14.11
2019-03-21T00:59:39.204Z,14.06
2019-03-21T01:02:06.915Z,13.83
2019-03-21T01:04:34.716Z,13.95
2019-03-21T01:07:02.487Z,13.70
2019-03-21T01:09:30.299Z,13.85
2019-03-21T01:11:58.005Z,13.83
2019-03-21T01:14:29.939Z,13.78
2019-03-21T01:16:55.501Z,13.72
2019-03-21T01:19:23.249Z,13.76
2019-03-21T01:21:50.962Z,13.71
2019-03-21T01:24:18.683Z,13.68
2019-03-21T01:26:46.555Z,13.73
2019-03-21T01:29:14.326Z,13.85
2019-03-21T01:31:42.111Z,13.77
2019-03-21T01:34:09.902Z,13.43
2019-03-21T01:36:37.725Z,13.19
2019-03-21T01:39:05.455Z,13.10
2019-03-21T01:41:33.260Z,12.75
2019-03-21T01:44:00.972Z,12.81
2019-03-21T01:46:28.701Z,12.89
2019-03-21T01:48:56.470Z,13.03
2019-03-21T01:51:24.179Z,13.02
2019-03-21T01:53:52.001Z,13.14
2019-03-21T01:56:19.803Z,13.03
2019-03-21T01:58:47.629Z,13.07
2019-03-21T02:01:15.393Z,12.76
2019-03-21T02:03:43.274Z,12.89
2019-03-21T02:06:11.035Z,12.97
2019-03-21T02:08:38.798Z,13.15
2019-03-21T02:11:06.572Z,12.90
2019-03-21T02:13:34.446Z,11.84
2019-03-21T02:16:02.155Z,10.70
2019-03-21T02:18:29.875Z,10.39
2019-03-21T02:20:57.739Z,10.15
2019-03-21T02:23:25.531Z,9.65
2019-03-21T02:25:53.257Z,9.36
2019-03-21T02:28:21.037Z,9.27
2019-03-21T02:30:48.760Z,9.36
2019-03-21T02:33:16.547Z,9.29
2019-03-21T02:35:44.356Z,9.48
2019-03-21T02:38:12.081Z,9.64
2019-03-21T02:40:39.870Z,9.24
2019-03-21T02:43:07.629Z,8.90
2019-03-21T02:45:35.413Z,9.08
2019-03-21T02:48:03.210Z,9.24
2019-03-21T02:50:31.048Z,9.02
2019-03-21T02:52:58.757Z,9.07
2019-03-21T02:55:26.497Z,9.07
2019-03-21T02:57:54.352Z,8.80
2019-03-21T03:00:22.212Z,9.33
2019-03-21T03:02:49.959Z,9.06
2019-03-21T03:05:17.757Z,9.04
2019-03-21T03:07:45.486Z,9.10
2019-03-21T03:10:13.288Z,8.73
2019-03-21T03:12:40.997Z,8.85
2019-03-21T03:15:21.891Z,8.78
2019-03-21T03:17:38.131Z,8.94
2019-03-21T03:20:06.005Z,8.71
2019-03-21T03:22:33.836Z,9.05
2019-03-21T03:25:01.545Z,9.13
2019-03-21T03:27:29.372Z,9.02
2019-03-21T03:29:57.091Z,8.65
2019-03-21T03:32:24.921Z,8.69
2019-03-21T03:34:52.669Z,8.78
2019-03-21T03:37:20.447Z,9.08
2019-03-21T03:39:48.300Z,8.91
2019-03-21T03:42:16.094Z,9.10
2019-03-21T03:44:43.955Z,9.00
2019-03-21T03:47:11.657Z,9.10
2019-03-21T03:49:39.384Z,8.95
2019-03-21T03:52:07.141Z,8.82
2019-03-21T03:54:34.913Z,8.89
2019-03-21T03:57:02.662Z,8.96
2019-03-21T03:59:30.392Z,8.79
2019-03-21T04:01:58.225Z,8.63
2019-03-21T04:04:26.136Z,8.76
2019-03-21T04:06:53.830Z,8.97
2019-03-21T04:09:21.593Z,8.92
2019-03-21T04:11:49.348Z,9.14
2019-03-21T04:14:17.068Z,9.37
2019-03-21T04:16:44.909Z,9.33
2019-03-21T04:19:12.778Z,9.18
2019-03-21T04:21:40.553Z,9.13
2019-03-21T04:24:08.425Z,8.91
2019-03-21T04:26:36.171Z,9.37
2019-03-21T04:29:03.869Z,9.55
2019-03-21T04:31:31.693Z,8.98
2019-03-21T04:33:59.397Z,8.95
2019-03-21T04:36:27.109Z,8.95
2019-03-21T04:38:54.920Z,9.05
2019-03-21T04:41:22.680Z,9.27
2019-03-21T04:43:50.563Z,9.05
2019-03-21T04:46:18.322Z,9.00
2019-03-21T04:48:46.180Z,9.08
2019-03-21T04:51:13.943Z,9.16
2019-03-21T04:53:41.689Z,8.95
2019-03-21T04:56:09.497Z,9.09
2019-03-21T04:58:37.334Z,9.18
2019-03-21T05:01:05.070Z,9.83
2019-03-21T05:03:32.866Z,9.73
2019-03-21T05:06:00.628Z,9.46
2019-03-21T05:08:28.409Z,9.16
2019-03-21T05:10:56.222Z,9.41
2019-03-21T05:13:24.106Z,9.39
2019-03-21T05:15:51.836Z,9.35
2019-03-21T05:18:19.555Z,9.21
2019-03-21T05:20:47.307Z,9.31
2019-03-21T05:23:15.226Z,9.01
2019-03-21T05:25:43.003Z,9.03
2019-03-21T05:28:10.732Z,8.75
2019-03-21T05:30:38.472Z,9.08
2019-03-21T05:33:06.278Z,8.82
2019-03-21T05:35:33.978Z,9.47
2019-03-21T05:38:01.853Z,9.34
2019-03-21T05:40:29.632Z,9.08
2019-03-21T05:42:58.129Z,9.50
2019-03-21T05:45:25.929Z,9.23
2019-03-21T05:47:53.694Z,8.94
2019-03-21T05:50:21.466Z,8.88
2019-03-21T05:52:49.278Z,8.51
2019-03-21T05:55:16.986Z,9.22
2019-03-21T05:57:44.753Z,9.08
2019-03-21T06:00:12.521Z,9.04
2019-03-21T06:02:40.275Z,9.00
2019-03-21T06:05:08.065Z,9.26
2019-03-21T06:07:35.975Z,9.19
2019-03-21T06:10:03.908Z,9.01
2019-03-21T06:12:31.637Z,9.20
2019-03-21T06:14:59.433Z,9.41
2019-03-21T06:17:27.128Z,9.53
2019-03-21T06:19:54.974Z,9.32
2019-03-21T06:22:22.761Z,9.65
2019-03-21T06:24:50.500Z,9.50
2019-03-21T06:27:18.309Z,9.90
2019-03-21T06:29:46.025Z,10.09
2019-03-21T06:32:13.798Z,9.75
2019-03-21T06:34:41.518Z,9.84
2019-03-21T06:37:09.251Z,10.14
2019-03-21T06:39:37.082Z,10.47
2019-03-21T06:42:04.875Z,10.10
2019-03-21T06:44:32.594Z,10.56
2019-03-21T06:47:00.412Z,10.87
2019-03-21T06:49:28.264Z,11.26
2019-03-21T06:51:56.005Z,11.58
2019-03-21T06:54:23.827Z,11.68
2019-03-21T06:56:51.658Z,11.03
2019-03-21T06:59:19.464Z,11.57
2019-03-21T07:01:47.308Z,11.86
2019-03-21T07:04:15.018Z,11.76
2019-03-21T07:06:42.817Z,12.08
2019-03-21T07:09:10.594Z,12.15
2019-03-21T07:11:38.398Z,12.20
2019-03-21T07:14:06.262Z,12.29
2019-03-21T07:16:34.108Z,12.48
2019-03-21T07:19:01.886Z,12.57
2019-03-21T07:21:29.840Z,12.80
2019-03-21T07:23:57.616Z,12.69
2019-03-21T07:26:25.378Z,12.68
2019-03-21T07:28:53.358Z,12.57
2019-03-21T07:31:21.243Z,12.70
2019-03-21T07:33:49.080Z,12.78
2019-03-21T07:36:16.863Z,12.73
2019-03-21T07:38:44.593Z,12.68
2019-03-21T07:41:12.382Z,12.85
2019-03-21T07:43:40.133Z,12.89
2019-03-21T07:46:07.920Z,12.92
2019-03-21T07:48:36.217Z,12.99
2019-03-21T07:51:04.076Z,13.06
2019-03-21T07:53:31.837Z,12.99
2019-03-21T07:55:59.615Z,13.05
2019-03-21T07:58:27.347Z,13.12
2019-03-21T08:00:55.116Z,13.03
2019-03-21T08:03:22.906Z,13.09
2019-03-21T08:05:50.629Z,13.17
2019-03-21T08:08:18.434Z,13.20
2019-03-21T08:10:46.192Z,13.03
2019-03-21T08:13:13.962Z,13.06
2019-03-21T08:15:41.739Z,13.03
2019-03-21T08:18:09.466Z,12.97
2019-03-21T08:20:37.267Z,13.20
2019-03-21T08:23:04.969Z,13.21
2019-03-21T08:25:32.784Z,13.31
2019-03-21T08:28:00.571Z,13.32
2019-03-21T08:30:28.309Z,13.19
2019-03-21T08:32:56.019Z,13.26
2019-03-21T08:35:23.716Z,13.30
2019-03-21T08:37:51.525Z,13.37
2019-03-21T08:40:19.280Z,13.25
2019-03-21T08:42:47.056Z,13.24
2019-03-21T08:45:14.809Z,13.13
2019-03-21T08:47:42.541Z,13.25
2019-03-21T08:50:10.267Z,13.21
2019-03-21T08:52:38.122Z,12.61
2019-03-21T08:55:05.842Z,13.07
2019-03-21T08:57:33.659Z,13.19
2019-03-21T09:00:01.417Z,13.16
2019-03-21T09:02:29.191Z,13.35
2019-03-21T09:04:59.608Z,13.56
2019-03-21T09:07:26.669Z,13.69
2019-03-21T09:09:54.421Z,13.84
2019-03-21T09:12:22.138Z,13.68
2019-03-21T09:14:49.865Z,13.84
2019-03-21T09:17:17.619Z,13.76
2019-03-21T09:19:45.486Z,13.91
2019-03-21T09:22:15.870Z,14.02
2019-03-21T09:24:42.778Z,13.82
2019-03-21T09:27:10.496Z,14.06
2019-03-21T09:29:38.250Z,14.17
2019-03-21T09:32:06.087Z,14.18
2019-03-21T09:34:33.843Z,14.20
2019-03-21T09:37:03.985Z,13.89
2019-03-21T09:39:31.092Z,13.99
2019-03-21T09:41:58.872Z,14.09
2019-03-21T09:44:26.592Z,14.07
2019-03-21T09:46:54.311Z,14.33
2019-03-21T09:49:22.062Z,14.34
2019-03-21T09:51:49.829Z,14.35
2019-03-21T09:54:17.549Z,14.62
2019-03-21T09:56:45.292Z,14.19
2019-03-21T09:59:13.126Z,14.50
2019-03-21T10:01:40.892Z,14.42
2019-03-21T10:04:08.783Z,14.56
2019-03-21T10:06:36.524Z,14.58
2019-03-21T10:09:04.673Z,14.94
2019-03-21T10:11:32.488Z,14.92
2019-03-21T10:14:00.238Z,15.14
2019-03-21T10:16:28.023Z,15.14
2019-03-21T10:18:55.777Z,15.13
2019-03-21T10:21:23.531Z,15.33
2019-03-21T10:23:51.310Z,14.79
2019-03-21T10:26:19.181Z,14.54
2019-03-21T10:28:46.904Z,14.59
2019-03-21T10:31:14.707Z,15.11
2019-03-21T10:33:42.470Z,15.42
2019-03-21T10:36:10.235Z,15.74
2019-03-21T10:38:37.981Z,14.09
2019-03-21T10:41:05.802Z,13.51
2019-03-21T10:43:33.648Z,13.21
2019-03-21T10:46:01.506Z,13.28
2019-03-21T10:48:29.263Z,14.05
2019-03-21T10:50:57.000Z,14.65
2019-03-21T10:53:24.708Z,15.15
2019-03-21T10:55:52.573Z,15.68
2019-03-21T10:58:20.340Z,15.79
2019-03-21T11:00:48.478Z,15.80
2019-03-21T11:03:16.705Z,15.47
2019-03-21T11:05:44.452Z,15.67
2019-03-21T11:08:12.245Z,15.82
2019-03-21T11:10:40.098Z,15.87
2019-03-21T11:13:07.862Z,15.72
2019-03-21T11:15:35.622Z,16.32
2019-03-21T11:18:03.390Z,16.81
2019-03-21T11:20:31.156Z,17.18
2019-03-21T11:22:58.878Z,17.97
2019-03-21T11:25:26.708Z,17.85
2019-03-21T11:27:54.408Z,18.60
2019-03-21T11:30:22.117Z,18.41
2019-03-21T11:32:49.904Z,17.34
2019-03-21T11:35:17.658Z,16.53
2019-03-21T11:37:45.531Z,16.41
2019-03-21T11:40:13.319Z,16.88
2019-03-21T11:42:41.043Z,17.01
2019-03-21T11:45:08.895Z,17.22
2019-03-21T11:47:41.728Z,16.15
2019-03-21T11:50:06.139Z,16.00
2019-03-21T11:52:33.879Z,16.56
2019-03-21T11:55:01.618Z,17.33
2019-03-21T11:57:29.428Z,18.09
2019-03-21T11:59:57.247Z,18.34
2019-03-21T12:02:27.465Z,19.21
2019-03-21T12:04:54.425Z,19.72
2019-03-21T12:07:22.163Z,19.98
2019-03-21T12:09:50.063Z,20.54
2019-03-21T12:12:17.749Z,21.04
2019-03-21T12:14:45.602Z,20.44
2019-03-21T12:17:13.365Z,20.69
2019-03-21T12:19:41.086Z,21.26
2019-03-21T12:22:08.910Z,21.64
2019-03-21T12:24:36.760Z,21.55
2019-03-21T12:27:04.571Z,22.09
2019-03-21T12:29:32.402Z,20.89
2019-03-21T12:32:00.167Z,20.79
2019-03-21T12:34:27.938Z,21.00
2019-03-21T12:36:55.716Z,21.20
2019-03-21T12:39:23.483Z,21.17
2019-03-21T12:41:51.187Z,21.54
2019-03-21T12:44:19.002Z,21.80
2019-03-21T12:46:46.772Z,21.82
2019-03-21T12:49:14.553Z,20.02
2019-03-21T12:51:42.300Z,19.42
2019-03-21T12:54:09.853Z,19.94
2019-03-21T12:56:37.623Z,20.22
2019-03-21T12:59:05.330Z,20.71
2019-03-21T13:01:33.176Z,20.75
2019-03-21T13:04:01.110Z,20.55
2019-03-21T13:06:28.901Z,20.74
2019-03-21T13:08:56.690Z,20.63
2019-03-21T13:11:24.414Z,20.32
2019-03-21T13:13:52.201Z,20.37
2019-03-21T13:16:19.977Z,20.29
2019-03-21T13:18:47.684Z,20.13
2019-03-21T13:21:15.228Z,19.91
2019-03-21T13:23:42.659Z,19.19
2019-03-21T13:26:10.219Z,19.37
2019-03-21T13:28:37.669Z,19.15
2019-03-21T13:31:05.390Z,19.03
2019-03-21T13:33:33.193Z,18.96
2019-03-21T13:36:00.925Z,18.85
2019-03-21T13:38:28.629Z,18.68
2019-03-21T13:40:56.410Z,18.59
2019-03-21T13:43:24.139Z,18.23
2019-03-21T13:45:51.947Z,18.33
2019-03-21T13:48:19.702Z,18.24
2019-03-21T13:50:47.166Z,18.15
2019-03-21T13:53:18.939Z,18.18
2019-03-21T13:55:44.125Z,17.80
2019-03-21T13:58:11.907Z,18.00
2019-03-21T14:00:41.128Z,18.17
2019-03-21T14:03:09.386Z,18.20
2019-03-21T14:05:37.260Z,18.01
2019-03-21T14:08:05.034Z,18.01
2019-03-21T14:10:32.740Z,17.52
2019-03-21T14:13:00.454Z,17.20
2019-03-21T14:15:28.312Z,17.42
2019-03-21T14:17:56.192Z,17.50
2019-03-21T14:20:23.923Z,17.37
2019-03-21T14:22:51.691Z,17.29
2019-03-21T14:25:19.528Z,17.02
2019-03-21T14:27:47.266Z,17.17
2019-03-21T14:30:14.981Z,17.34
2019-03-21T14:32:42.767Z,17.64
2019-03-21T14:35:10.537Z,17.59
2019-03-21T14:37:38.240Z,17.57
2019-03-21T14:40:05.976Z,17.10
2019-03-21T14:42:33.898Z,17.42
2019-03-21T14:45:01.719Z,17.31
2019-03-21T14:47:36.035Z,17.62
2019-03-21T14:49:58.971Z,17.56
2019-03-21T14:52:26.689Z,17.61
2019-03-21T14:54:54.524Z,17.59
2019-03-21T14:57:22.281Z,17.42
2019-03-21T14:59:50.001Z,17.42
2019-03-21T15:02:17.709Z,17.20
2019-03-21T15:04:45.459Z,17.64
2019-03-21T15:07:13.270Z,17.68
2019-03-21T15:09:40.982Z,17.60
2019-03-21T15:12:08.770Z,17.90
2019-03-21T15:14:36.520Z,17.59
2019-03-21T15:17:04.226Z,17.63
2019-03-21T15:19:32.074Z,17.27
2019-03-21T15:21:59.846Z,16.63
2019-03-21T15:24:27.621Z,16.87
2019-03-21T15:26:55.381Z,16.60
2019-03-21T15:29:23.151Z,15.73
2019-03-21T15:31:50.924Z,16.14
2019-03-21T15:34:18.640Z,15.31
2019-03-21T15:36:46.390Z,15.23
2019-03-21T15:39:14.236Z,15.35
2019-03-21T15:41:42.106Z,15.20
2019-03-21T15:44:09.958Z,15.10
2019-03-21T15:46:37.720Z,15.53
2019-03-21T15:49:05.477Z,15.38
2019-03-21T15:51:33.342Z,15.70
2019-03-21T15:54:01.103Z,15.18
2019-03-21T15:56:28.889Z,14.53
2019-03-21T15:58:56.743Z,14.83
2019-03-21T16:01:24.564Z,14.62
2019-03-21T16:03:52.367Z,14.44
2019-03-21T16:06:20.087Z,14.70
2019-03-21T16:08:47.920Z,14.91
2019-03-21T16:11:15.629Z,15.12
2019-03-21T16:13:43.417Z,15.47
2019-03-21T16:16:11.120Z,15.09
2019-03-21T16:18:38.905Z,15.23
2019-03-21T16:21:06.605Z,14.87
2019-03-21T16:23:34.332Z,14.67
2019-03-21T16:26:02.058Z,14.63
2019-03-21T16:28:29.833Z,14.76
2019-03-21T16:30:57.614Z,14.65
2019-03-21T16:33:25.378Z,14.68
2019-03-21T16:35:53.153Z,14.78
2019-03-21T16:38:20.900Z,13.97
2019-03-21T16:40:48.672Z,13.86
2019-03-21T16:43:16.550Z,14.46
2019-03-21T16:45:44.406Z,14.28
2019-03-21T16:48:12.169Z,14.23
2019-03-21T16:50:39.921Z,14.31
2019-03-21T16:53:12.032Z,14.44
2019-03-21T16:55:39.817Z,14.44
2019-03-21T16:58:08.744Z,14.49
2019-03-21T17:00:36.568Z,14.45
2019-03-21T17:03:04.403Z,14.71
2019-03-21T17:05:32.168Z,14.57
2019-03-21T17:08:10.572Z,14.68
2019-03-21T17:10:30.758Z,14.27
2019-03-21T17:12:58.868Z,14.23
2019-03-21T17:15:26.647Z,14.17
2019-03-21T17:17:54.344Z,13.90
2019-03-21T17:20:22.069Z,13.57
2019-03-21T17:22:49.977Z,13.58
2019-03-21T17:25:17.673Z,13.48
2019-03-21T17:27:45.445Z,13.20
2019-03-21T17:30:14.419Z,13.12
2019-03-21T17:32:42.203Z,13.06
2019-03-21T17:35:09.952Z,13.38
2019-03-21T17:37:37.746Z,13.43
2019-03-21T17:40:05.520Z,13.47
2019-03-21T17:42:33.409Z,13.52
2019-03-21T17:45:01.271Z,13.50
2019-03-21T17:47:29.136Z,13.57
2019-03-21T17:49:59.246Z,13.63
2019-03-21T17:52:27.204Z,13.69
2019-03-21T17:54:54.945Z,13.79
2019-03-21T17:57:33.998Z,13.89
2019-03-21T17:59:52.348Z,13.85
2019-03-21T18:02:20.084Z,13.77
2019-03-21T18:04:47.927Z,13.73
2019-03-21T18:07:15.868Z,13.98
2019-03-21T18:09:43.791Z,13.95
2019-03-21T18:12:11.528Z,13.83
2019-03-21T18:14:39.580Z,13.94
2019-03-21T18:17:07.322Z,13.84
2019-03-21T18:19:35.117Z,13.55
2019-03-21T18:22:02.875Z,13.60
2019-03-21T18:24:30.741Z,13.67
2019-03-21T18:26:58.472Z,13.84
2019-03-21T18:29:26.298Z,13.62
2019-03-21T18:31:54.130Z,13.79
2019-03-21T18:34:21.973Z,13.85
2019-03-21T18:36:53.144Z,13.90
2019-03-21T18:39:20.880Z,14.04
2019-03-21T18:41:51.254Z,13.82
2019-03-21T18:44:19.537Z,13.75
2019-03-21T18:46:47.290Z,13.77
2019-03-21T18:49:15.050Z,13.93
2019-03-21T18:51:42.847Z,14.03
2019-03-21T18:54:10.560Z,13.74
2019-03-21T18:56:38.360Z,13.79
2019-03-21T18:59:06.075Z,13.87
2019-03-21T19:01:33.891Z,13.80
2019-03-21T19:04:01.623Z,13.90
2019-03-21T19:06:29.347Z,13.77
2019-03-21T19:08:57.179Z,13.85
2019-03-21T19:11:24.926Z,13.80
2019-03-21T19:13:52.724Z,13.76
2019-03-21T19:16:20.473Z,13.78
2019-03-21T19:18:48.322Z,13.79
2019-03-21T19:21:16.105Z,13.76
2019-03-21T19:23:43.900Z,13.71
2019-03-21T19:26:11.626Z,13.69
2019-03-21T19:28:39.354Z,13.71
2019-03-21T19:31:07.299Z,13.75
2019-03-21T19:33:35.048Z,13.75
2019-03-21T19:36:02.852Z,13.68
2019-03-21T19:38:30.647Z,13.69
2019-03-21T19:40:58.573Z,13.60
2019-03-21T19:43:26.299Z,13.60
2019-03-21T19:45:54.095Z,13.44
2019-03-21T19:48:21.827Z,13.51
2019-03-21T19:50:49.598Z,13.46
2019-03-21T19:53:17.379Z,13.39
2019-03-21T19:55:45.174Z,13.40
2019-03-21T19:58:13.035Z,13.32
2019-03-21T20:00:40.795Z,13.33
2019-03-21T20:03:08.542Z,13.38
2019-03-21T20:05:36.281Z,13.33
2019-03-21T20:08:04.103Z,13.22
2019-03-21T20:10:31.813Z,13.35
2019-03-21T20:13:00.030Z,13.17
2019-03-21T20:15:27.897Z,13.07
2019-03-21T20:17:55.665Z,13.24
2019-03-21T20:20:23.428Z,13.08
2019-03-21T20:22:51.215Z,13.05
2019-03-21T20:25:18.938Z,13.09
2019-03-21T20:27:46.651Z,13.10
2019-03-21T20:30:14.501Z,12.99
2019-03-21T20:32:42.368Z,12.92
2019-03-21T20:35:10.095Z,12.84
2019-03-21T20:37:37.900Z,12.75
2019-03-21T20:40:05.644Z,12.76
2019-03-21T20:42:33.350Z,12.76
2019-03-21T20:45:01.230Z,12.76
2019-03-21T20:47:29.062Z,12.85
2019-03-21T20:49:56.785Z,12.81
2019-03-21T20:52:24.625Z,12.75
2019-03-21T20:54:52.344Z,12.81
2019-03-21T20:57:20.139Z,12.83
2019-03-21T20:59:47.898Z,12.76
2019-03-21T21:02:15.656Z,12.80
2019-03-21T21:04:43.421Z,12.73
2019-03-21T21:07:11.146Z,12.69
2019-03-21T21:09:38.962Z,12.60
2019-03-21T21:12:06.737Z,12.44
2019-03-21T21:14:34.617Z,12.45
2019-03-21T21:17:02.359Z,12.50
2019-03-21T21:19:30.129Z,12.38
2019-03-21T21:21:57.906Z,12.04
2019-03-21T21:24:25.668Z,11.81
2019-03-21T21:26:53.483Z,11.82
2019-03-21T21:29:21.354Z,11.98
2019-03-21T21:31:49.895Z,12.01
2019-03-21T21:34:18.744Z,11.97
2019-03-21T21:36:46.536Z,11.65
2019-03-21T21:39:14.325Z,11.28
2019-03-21T21:41:42.187Z,11.14
2019-03-21T21:44:09.951Z,10.71
2019-03-21T21:46:37.703Z,10.69
2019-03-21T21:49:05.442Z,10.89
2019-03-21T21:51:33.189Z,11.44
2019-03-21T21:54:01.027Z,10.83
2019-03-21T21:56:28.876Z,10.56
2019-03-21T21:58:56.635Z,10.31
2019-03-21T22:01:24.582Z,10.40
2019-03-21T22:04:03.843Z,10.69
2019-03-21T22:09:34.895Z,10.27
2019-03-21T22:15:14.278Z,10.86
2019-03-21T22:17:44.533Z,10.76
2019-03-21T22:20:13.795Z,10.95
2019-03-21T22:22:41.729Z,10.56
2019-03-21T23:02:50.266Z,11.32
2019-03-21T23:05:17.824Z,11.45
2019-03-21T23:07:45.460Z,11.36
2019-03-21T23:12:16.157Z,11.66
2019-03-21T23:14:43.973Z,10.78
2019-03-21T23:17:11.821Z,10.52
2019-03-21T23:19:39.601Z,10.42
2019-03-21T23:22:07.383Z,10.62
2019-03-21T23:24:35.116Z,10.65
2019-03-21T23:27:02.926Z,10.26
2019-03-21T23:29:30.764Z,9.99
2019-03-21T23:31:58.575Z,9.72
2019-03-21T23:34:26.414Z,9.52
2019-03-21T23:36:54.230Z,9.17
2019-03-21T23:39:21.969Z,9.44
2019-03-21T23:41:49.700Z,9.52
2019-03-21T23:44:17.597Z,9.59
2019-03-21T23:46:45.558Z,9.45
2019-03-21T23:49:13.277Z,9.12
2019-03-21T23:51:41.081Z,8.63
2019-03-21T23:54:08.820Z,9.04
2019-03-21T23:56:36.623Z,9.01
